createdAt,value
2022-08-27T00:00:49.185Z,99986.22
2022-08-27T00:03:16.866Z,99996.69
2022-08-27T00:05:44.326Z,99991.72
2022-08-27T00:08:12.934Z,99989.75
2022-08-27T00:10:41.596Z,99993.94
2022-08-27T00:13:09.024Z,99988.09
2022-08-27T00:15:36.048Z,99986.41
2022-08-27T00:18:03.105Z,99990.94
2022-08-27T00:20:30.168Z,99992.22
2022-08-27T00:22:57.129Z,99991.41
2022-08-27T00:25:24.115Z,99987.47
2022-08-27T00:27:51.788Z,99993.63
2022-08-27T00:30:21.166Z,99995.97
2022-08-27T00:32:48.322Z,99994.47
2022-08-27T00:35:16.295Z,99988.25
2022-08-27T00:37:44.625Z,99995.69
2022-08-27T00:40:17.061Z,99997.59
2022-08-27T00:42:46.114Z,99995.28
2022-08-27T00:45:18.976Z,99997.91
2022-08-27T00:47:51.248Z,99998.09
2022-08-27T00:50:23.893Z,100000.84
2022-08-27T00:52:57.977Z,100011.16
2022-08-27T00:55:30.548Z,100006.91
2022-08-27T00:58:14.968Z,100007.78
2022-08-27T01:00:42.825Z,100006.91
2022-08-27T01:03:09.884Z,100010.38
2022-08-27T01:05:38.382Z,100004.75
2022-08-27T01:08:13.218Z,100006.72
2022-08-27T01:10:40.962Z,100004.53
2022-08-27T01:13:13.167Z,100009.50
2022-08-27T01:15:41.676Z,100002.19
2022-08-27T01:18:10.033Z,99998.44
2022-08-27T01:20:58.121Z,100006.38
2022-08-27T01:23:37.139Z,100002.84
2022-08-27T01:26:06.770Z,100016.84
2022-08-27T01:28:37.413Z,100011.66
2022-08-27T01:31:10.715Z,100021.66
2022-08-27T01:33:39.026Z,100012.94
2022-08-27T01:36:06.968Z,100013.56
2022-08-27T01:38:34.499Z,100008.84
2022-08-27T01:41:03.697Z,100005.84
2022-08-27T01:43:31.846Z,100012.75
2022-08-27T01:45:59.251Z,100012.94
2022-08-27T01:48:26.181Z,100011.06
2022-08-27T01:50:53.174Z,100013.97
2022-08-27T01:53:24.927Z,100014.63
2022-08-27T01:55:53.585Z,100013.25
2022-08-27T01:58:27.385Z,100012.97
2022-08-27T02:00:58.197Z,100016.13
2022-08-27T02:03:25.644Z,100013.00
2022-08-27T02:05:52.994Z,100014.03
2022-08-27T02:08:20.105Z,100021.56
2022-08-27T02:10:49.744Z,100014.53
2022-08-27T02:13:17.396Z,100014.72
2022-08-27T02:15:44.922Z,100020.22
2022-08-27T02:18:12.334Z,100014.44
2022-08-27T02:20:39.700Z,100008.63
2022-08-27T02:23:07.410Z,100012.94
2022-08-27T02:25:34.538Z,100008.66
2022-08-27T02:28:02.029Z,100008.09
2022-08-27T02:30:32.235Z,100011.84
2022-08-27T02:33:03.042Z,100017.03
2022-08-27T02:35:32.402Z,100021.28
2022-08-27T02:37:59.836Z,100025.41
2022-08-27T02:40:27.305Z,100019.13
2022-08-27T02:42:54.330Z,100019.09
2022-08-27T02:45:21.704Z,100028.84
2022-08-27T02:47:48.681Z,100021.94
2022-08-27T02:50:15.769Z,100016.69
2022-08-27T02:52:44.837Z,100018.63
2022-08-27T02:55:14.640Z,100018.53
2022-08-27T02:57:45.567Z,100029.59
2022-08-27T03:00:16.311Z,100026.25
2022-08-27T03:02:43.519Z,100024.06
2022-08-27T03:05:12.730Z,100024.28
2022-08-27T03:07:40.441Z,100026.94
2022-08-27T03:10:09.182Z,100034.38
2022-08-27T03:12:36.634Z,100026.53
2022-08-27T03:15:06.531Z,100030.50
2022-08-27T03:17:52.152Z,100037.16
2022-08-27T03:20:19.524Z,100033.94
2022-08-27T03:22:46.510Z,100034.19
2022-08-27T03:25:13.805Z,100038.56
2022-08-27T03:27:41.061Z,100037.34
2022-08-27T03:30:12.183Z,100048.97
2022-08-27T03:32:39.226Z,100047.59
2022-08-27T03:35:06.756Z,100051.03
2022-08-27T03:37:34.160Z,100056.13
2022-08-27T03:40:01.564Z,100056.78
2022-08-27T03:42:28.578Z,100055.94
2022-08-27T03:44:55.584Z,100055.81
2022-08-27T03:47:23.866Z,100052.91
2022-08-27T03:49:50.864Z,100055.44
2022-08-27T03:52:18.078Z,100054.66
2022-08-27T03:54:45.731Z,100054.00
2022-08-27T03:57:12.668Z,100057.91
2022-08-27T03:59:39.624Z,100049.28
2022-08-27T04:02:07.010Z,100054.47
2022-08-27T04:04:34.194Z,100050.16
2022-08-27T04:07:01.146Z,100038.97
2022-08-27T04:09:28.505Z,100042.81
2022-08-27T04:11:55.827Z,100037.13
2022-08-27T04:14:26.755Z,100045.19
2022-08-27T04:16:57.555Z,100043.69
2022-08-27T04:19:28.014Z,100048.44
2022-08-27T04:22:03.451Z,100042.81
2022-08-27T04:24:32.637Z,100038.47
2022-08-27T04:27:01.052Z,100042.03
2022-08-27T04:29:28.764Z,100047.31
2022-08-27T04:31:56.304Z,100046.81
2022-08-27T04:34:23.762Z,100046.72
2022-08-27T04:36:50.837Z,100047.13
2022-08-27T04:39:17.836Z,100049.38
2022-08-27T04:41:44.812Z,100049.06
2022-08-27T04:44:12.278Z,100050.81
2022-08-27T04:46:40.763Z,100040.13
2022-08-27T04:49:12.446Z,100047.66
2022-08-27T04:51:41.188Z,100048.28
2022-08-27T04:54:09.839Z,100047.75
2022-08-27T04:56:38.150Z,100048.16
2022-08-27T04:59:08.243Z,100046.44
2022-08-27T05:01:35.656Z,100047.53
2022-08-27T05:04:03.030Z,100048.13
2022-08-27T05:06:30.222Z,100059.69
2022-08-27T05:08:58.751Z,100058.66
2022-08-27T05:11:32.248Z,100055.34
2022-08-27T05:13:59.473Z,100060.84
2022-08-27T05:16:26.393Z,100066.88
2022-08-27T05:18:53.775Z,100068.78
2022-08-27T05:21:27.350Z,100063.16
2022-08-27T05:23:56.173Z,100066.75
2022-08-27T05:26:23.284Z,100066.38
2022-08-27T05:28:51.145Z,100067.97
2022-08-27T05:31:19.766Z,100065.50
2022-08-27T05:33:47.218Z,100066.72
2022-08-27T05:36:21.221Z,100067.75
2022-08-27T05:38:49.482Z,100081.81
2022-08-27T05:41:19.711Z,100076.31
2022-08-27T05:43:50.162Z,100075.66
2022-08-27T05:46:20.646Z,100081.06
2022-08-27T05:48:48.435Z,100079.66
2022-08-27T05:51:43.384Z,100085.38
2022-08-27T05:54:16.837Z,100087.97
2022-08-27T05:56:43.900Z,100092.13
2022-08-27T05:59:29.280Z,100083.06
2022-08-27T06:01:56.989Z,100079.28
2022-08-27T06:04:25.112Z,100086.25
2022-08-27T06:06:52.964Z,100079.34
2022-08-27T06:09:22.459Z,100087.09
2022-08-27T06:11:50.238Z,100091.47
2022-08-27T06:14:17.239Z,100100.88
2022-08-27T06:16:44.548Z,100100.41
2022-08-27T06:19:12.376Z,100103.09
2022-08-27T06:21:41.964Z,100107.06
2022-08-27T06:24:09.888Z,100108.44
2022-08-27T06:26:36.829Z,100108.97
2022-08-27T06:29:08.415Z,100114.16
2022-08-27T06:31:35.770Z,100112.31
2022-08-27T06:34:07.562Z,100117.78
2022-08-27T06:36:39.966Z,100108.75
2022-08-27T06:39:08.567Z,100111.31
2022-08-27T06:41:35.876Z,100119.00
2022-08-27T06:44:11.554Z,100108.25
2022-08-27T06:46:39.218Z,100119.84
2022-08-27T06:49:07.333Z,100105.88
2022-08-27T06:51:37.857Z,100112.66
2022-08-27T06:54:08.254Z,100124.00
2022-08-27T06:56:36.374Z,100115.81
2022-08-27T06:59:06.260Z,100121.16
2022-08-27T07:01:41.870Z,100124.06
2022-08-27T07:04:12.100Z,100124.03
2022-08-27T07:06:40.553Z,100127.34
2022-08-27T07:09:09.639Z,100126.88
2022-08-27T07:11:38.452Z,100130.41
2022-08-27T07:14:06.475Z,100134.06
2022-08-27T07:16:34.249Z,100131.13
2022-08-27T07:19:03.803Z,100133.28
2022-08-27T07:21:33.127Z,100135.50
2022-08-27T07:24:05.075Z,100128.44
2022-08-27T07:26:34.916Z,100131.41
2022-08-27T07:29:03.035Z,100128.00
2022-08-27T07:31:30.093Z,100118.84
2022-08-27T07:33:57.126Z,100122.22
2022-08-27T07:36:24.732Z,100123.94
2022-08-27T07:38:59.124Z,100131.97
2022-08-27T07:41:31.845Z,100120.81
2022-08-27T07:44:20.515Z,100128.50
2022-08-27T07:46:49.299Z,100114.03
2022-08-27T07:49:20.333Z,100118.34
2022-08-27T07:51:47.483Z,100116.28
2022-08-27T07:54:15.316Z,100118.69
2022-08-27T07:56:42.358Z,100110.06
2022-08-27T07:59:11.263Z,100111.19
2022-08-27T08:01:38.917Z,100120.03
2022-08-27T08:04:06.066Z,100123.78
2022-08-27T08:06:36.215Z,100124.06
2022-08-27T08:09:03.249Z,100113.16
2022-08-27T08:11:30.563Z,100114.97
2022-08-27T08:13:57.526Z,100119.72
2022-08-27T08:16:29.570Z,100115.06
2022-08-27T08:19:00.411Z,100123.13
2022-08-27T08:21:27.644Z,100107.50
2022-08-27T08:23:54.770Z,100111.94
2022-08-27T08:26:21.861Z,100121.34
2022-08-27T08:28:48.865Z,100116.31
2022-08-27T08:31:16.399Z,100112.47
2022-08-27T08:33:43.385Z,100116.38
2022-08-27T08:36:13.647Z,100116.19
2022-08-27T08:38:41.375Z,100113.66
2022-08-27T08:41:28.176Z,100113.19
2022-08-27T08:44:03.505Z,100113.75
2022-08-27T08:46:46.690Z,100116.63
2022-08-27T08:49:33.415Z,100112.06
2022-08-27T08:52:31.158Z,100104.13
2022-08-27T08:55:19.976Z,100110.66
2022-08-27T08:58:28.097Z,100106.88
2022-08-27T09:01:03.855Z,100113.19
2022-08-27T09:03:36.375Z,100101.28
2022-08-27T09:06:08.303Z,100104.47
2022-08-27T09:08:41.631Z,100102.38
2022-08-27T09:11:32.805Z,100108.69
2022-08-27T09:14:12.799Z,100102.84
2022-08-27T09:16:40.645Z,100106.69
2022-08-27T09:19:07.755Z,100114.38
2022-08-27T09:21:59.826Z,100109.38
2022-08-27T09:24:32.932Z,100110.47
2022-08-27T09:27:00.307Z,100104.78
2022-08-27T09:29:29.792Z,100110.78
2022-08-27T09:32:00.868Z,100102.38
2022-08-27T09:34:35.395Z,100102.25
2022-08-27T09:37:10.508Z,100109.28
2022-08-27T09:40:04.450Z,100116.75
2022-08-27T09:42:53.803Z,100111.13
2022-08-27T09:45:26.901Z,100109.44
2022-08-27T09:47:55.597Z,100102.59
2022-08-27T09:50:31.565Z,100101.97
2022-08-27T09:53:00.162Z,100093.97
2022-08-27T09:55:47.380Z,100090.88
2022-08-27T09:58:22.442Z,100093.38
2022-08-27T10:00:57.993Z,100093.06
2022-08-27T10:03:26.523Z,100094.84
2022-08-27T10:05:55.389Z,100092.13
2022-08-27T10:08:28.749Z,100099.59
2022-08-27T10:10:59.870Z,100098.50
2022-08-27T10:13:41.047Z,100095.28
2022-08-27T10:16:29.640Z,100099.53
2022-08-27T10:19:33.880Z,100097.19
2022-08-27T10:22:18.631Z,100103.16
2022-08-27T10:25:08.763Z,100090.66
2022-08-27T10:28:08.760Z,100106.41
2022-08-27T10:30:58.694Z,100089.84
2022-08-27T10:33:31.124Z,100100.28
2022-08-27T10:36:10.603Z,100102.22
2022-08-27T10:38:46.145Z,100093.75
2022-08-27T10:41:22.770Z,100098.78
2022-08-27T10:43:55.814Z,100097.03
2022-08-27T10:46:27.137Z,100097.97
2022-08-27T10:49:29.045Z,100083.84
2022-08-27T10:52:13.618Z,100087.69
2022-08-27T10:54:50.526Z,100095.75
2022-08-27T10:57:51.746Z,100091.31
2022-08-27T11:00:19.900Z,100103.81
2022-08-27T11:02:54.074Z,100098.50
2022-08-27T11:05:27.055Z,100089.00
2022-08-27T11:08:00.468Z,100088.84
2022-08-27T11:10:31.922Z,100091.22
2022-08-27T11:13:33.152Z,100096.13
2022-08-27T11:16:07.508Z,100085.31
2022-08-27T11:18:42.730Z,100086.41
2022-08-27T11:21:48.155Z,100083.81
2022-08-27T11:24:31.995Z,100084.34
2022-08-27T11:27:05.855Z,100086.41
2022-08-27T11:29:40.063Z,100083.75
2022-08-27T11:32:40.070Z,100086.78
2022-08-27T11:35:26.424Z,100085.84
2022-08-27T11:38:12.295Z,100090.25
2022-08-27T11:41:04.074Z,100080.97
2022-08-27T11:43:35.735Z,100078.22
2022-08-27T11:46:05.971Z,100074.50
2022-08-27T11:48:37.248Z,100081.34
2022-08-27T11:51:06.398Z,100079.34
2022-08-27T11:53:42.820Z,100089.44
2022-08-27T11:56:36.859Z,100079.91
2022-08-27T11:59:09.374Z,100068.63
2022-08-27T12:01:36.589Z,100074.31
2022-08-27T12:04:24.674Z,100073.75
2022-08-27T12:07:06.721Z,100077.91
2022-08-27T12:10:07.186Z,100075.34
2022-08-27T12:12:45.857Z,100065.16
2022-08-27T12:15:40.304Z,100080.63
2022-08-27T12:18:19.093Z,100080.78
2022-08-27T12:21:03.532Z,100077.84
2022-08-27T12:23:50.056Z,100085.09
2022-08-27T12:26:35.465Z,100083.16
2022-08-27T12:29:31.361Z,100081.34
2022-08-27T12:32:25.530Z,100091.38
2022-08-27T12:35:19.341Z,100078.34
2022-08-27T12:38:01.527Z,100075.50
2022-08-27T12:40:51.950Z,100093.81
2022-08-27T12:43:22.756Z,100093.38
2022-08-27T12:45:56.011Z,100091.06
2022-08-27T12:48:30.996Z,100083.81
2022-08-27T12:51:02.042Z,100079.59
2022-08-27T12:53:50.782Z,100093.28
2022-08-27T12:56:23.911Z,100091.38
2022-08-27T12:59:10.949Z,100097.31
2022-08-27T13:02:19.778Z,100085.47
2022-08-27T13:04:48.183Z,100094.56
2022-08-27T13:07:41.559Z,100096.91
2022-08-27T13:10:32.601Z,100087.44
2022-08-27T13:13:10.275Z,100088.47
2022-08-27T13:15:43.898Z,100094.50
2022-08-27T13:18:11.999Z,100100.38
2022-08-27T13:20:40.374Z,100100.66
2022-08-27T13:23:18.494Z,100100.28
2022-08-27T13:26:03.491Z,100092.69
2022-08-27T13:28:31.613Z,100094.28
2022-08-27T13:30:59.711Z,100107.81
2022-08-27T13:33:30.060Z,100101.38
2022-08-27T13:35:59.061Z,100102.78
2022-08-27T13:38:31.613Z,100113.25
2022-08-27T13:41:00.635Z,100130.31
2022-08-27T13:43:39.740Z,100128.31
2022-08-27T13:46:12.107Z,100123.47
2022-08-27T13:48:44.454Z,100128.78
2022-08-27T13:51:13.281Z,100122.00
2022-08-27T13:54:07.210Z,100120.81
2022-08-27T13:56:37.953Z,100129.19
2022-08-27T13:59:10.552Z,100121.31
2022-08-27T14:01:42.186Z,100124.75
2022-08-27T14:04:20.404Z,100130.00
2022-08-27T14:06:48.158Z,100137.94
2022-08-27T14:09:15.006Z,100123.34
2022-08-27T14:11:42.187Z,100131.63
2022-08-27T14:14:09.437Z,100131.53
2022-08-27T14:16:37.570Z,100142.25
2022-08-27T14:19:12.278Z,100133.94
2022-08-27T14:21:42.148Z,100140.63
2022-08-27T14:24:09.461Z,100145.84
2022-08-27T14:26:36.514Z,100149.63
2022-08-27T14:29:03.566Z,100153.28
2022-08-27T14:31:39.258Z,100144.88
2022-08-27T14:34:08.517Z,100163.41
2022-08-27T14:36:38.616Z,100160.34
2022-08-27T14:39:06.124Z,100162.88
2022-08-27T14:41:33.528Z,100167.06
2022-08-27T14:44:00.543Z,100157.41
2022-08-27T14:46:31.130Z,100159.72
2022-08-27T14:49:01.147Z,100158.22
2022-08-27T14:51:31.206Z,100161.03
2022-08-27T14:53:58.204Z,100164.44
2022-08-27T14:56:26.291Z,100172.88
2022-08-27T14:58:53.851Z,100172.84
2022-08-27T15:01:24.481Z,100161.13
2022-08-27T15:03:52.533Z,100168.44
2022-08-27T15:06:23.751Z,100186.38
2022-08-27T15:08:51.600Z,100181.56
2022-08-27T15:11:41.777Z,100180.41
2022-08-27T15:14:16.298Z,100182.25
2022-08-27T15:16:44.348Z,100182.38
2022-08-27T15:19:13.653Z,100176.44
2022-08-27T15:21:42.091Z,100177.47
2022-08-27T15:24:26.949Z,100175.44
2022-08-27T15:26:55.020Z,100176.94
2022-08-27T15:29:22.024Z,100182.63
2022-08-27T15:31:49.088Z,100186.16
2022-08-27T15:34:16.265Z,100179.84
2022-08-27T15:36:43.430Z,100185.53
2022-08-27T15:39:11.064Z,100185.19
2022-08-27T15:42:03.373Z,100182.34
2022-08-27T15:44:26.669Z,100188.28
2022-08-27T15:46:53.581Z,100184.06
2022-08-27T15:49:21.096Z,100180.50
2022-08-27T15:51:48.185Z,100178.03
2022-08-27T15:54:15.521Z,100182.88
2022-08-27T15:56:42.548Z,100176.03
2022-08-27T15:59:09.792Z,100184.50
2022-08-27T16:01:38.278Z,100189.00
2022-08-27T16:04:06.206Z,100184.03
2022-08-27T16:06:34.990Z,100183.22
2022-08-27T16:09:02.496Z,100185.00
2022-08-27T16:11:29.439Z,100195.53
2022-08-27T16:13:56.709Z,100185.38
2022-08-27T16:16:27.873Z,100190.78
2022-08-27T16:18:55.138Z,100194.47
2022-08-27T16:21:22.784Z,100207.22
2022-08-27T16:23:49.960Z,100210.69
2022-08-27T16:26:16.933Z,100215.38
2022-08-27T16:28:44.808Z,100217.06
2022-08-27T16:31:13.695Z,100216.47
2022-08-27T16:33:44.136Z,100221.50
2022-08-27T16:36:11.305Z,100223.69
2022-08-27T16:38:38.377Z,100225.69
2022-08-27T16:41:06.518Z,100217.78
2022-08-27T16:43:33.742Z,100219.78
2022-08-27T16:46:02.000Z,100221.22
2022-08-27T16:48:48.241Z,100218.56
2022-08-27T16:51:30.416Z,100215.50
2022-08-27T16:54:01.248Z,100228.59
2022-08-27T16:56:28.609Z,100230.94
2022-08-27T16:58:56.247Z,100230.25
2022-08-27T17:01:24.552Z,100226.25
2022-08-27T17:04:18.129Z,100232.38
2022-08-27T17:06:42.262Z,100235.88
2022-08-27T17:09:10.691Z,100247.50
2022-08-27T17:11:41.909Z,100254.19
2022-08-27T17:14:10.909Z,100246.31
2022-08-27T17:16:40.552Z,100241.13
2022-08-27T17:19:07.737Z,100243.81
2022-08-27T17:21:34.994Z,100242.59
2022-08-27T17:24:02.732Z,100242.13
2022-08-27T17:26:32.996Z,100245.16
2022-08-27T17:29:00.397Z,100242.31
2022-08-27T17:31:30.147Z,100245.59
2022-08-27T17:33:59.713Z,100245.75
2022-08-27T17:36:28.643Z,100246.53
2022-08-27T17:38:56.082Z,100254.91
2022-08-27T17:41:36.839Z,100268.50
2022-08-27T17:44:07.904Z,100263.00
2022-08-27T17:46:34.996Z,100269.13
2022-08-27T17:49:02.181Z,100272.41
2022-08-27T17:51:29.239Z,100270.13
2022-08-27T17:54:01.574Z,100268.91
2022-08-27T17:56:29.743Z,100278.59
2022-08-27T17:58:56.802Z,100272.69
2022-08-27T18:01:28.312Z,100280.34
2022-08-27T18:03:57.119Z,100285.13
2022-08-27T18:06:24.853Z,100276.63
2022-08-27T18:08:52.078Z,100273.81
2022-08-27T18:11:19.693Z,100269.88
2022-08-27T18:13:52.303Z,100273.03
2022-08-27T18:16:20.203Z,100279.59
2022-08-27T18:18:47.721Z,100280.94
2022-08-27T18:21:25.049Z,100277.72
2022-08-27T18:23:52.450Z,100281.91
2022-08-27T18:26:21.762Z,100286.06
2022-08-27T18:28:49.220Z,100285.59
2022-08-27T18:31:18.820Z,100290.25
2022-08-27T18:33:46.318Z,100289.41
2022-08-27T18:36:13.313Z,100294.94
2022-08-27T18:38:40.317Z,100290.22
2022-08-27T18:41:08.432Z,100297.00
2022-08-27T18:43:36.700Z,100302.03
2022-08-27T18:46:04.933Z,100303.09
2022-08-27T18:48:33.054Z,100298.81
2022-08-27T18:51:03.171Z,100304.44
2022-08-27T18:53:33.765Z,100300.81
2022-08-27T18:56:01.937Z,100297.34
2022-08-27T18:58:29.078Z,100300.06
2022-08-27T19:00:59.730Z,100309.13
2022-08-27T19:03:31.356Z,100315.53
2022-08-27T19:05:58.476Z,100316.38
2022-08-27T19:08:28.297Z,100304.81
2022-08-27T19:10:55.764Z,100314.69
2022-08-27T19:13:23.145Z,100315.38
2022-08-27T19:15:57.105Z,100322.59
2022-08-27T19:18:26.299Z,100323.03
2022-08-27T19:20:53.508Z,100324.56
2022-08-27T19:23:22.476Z,100326.59
2022-08-27T19:25:51.491Z,100326.81
2022-08-27T19:28:24.698Z,100327.78
2022-08-27T19:30:51.774Z,100326.03
2022-08-27T19:33:18.751Z,100326.72
2022-08-27T19:35:45.735Z,100327.75
2022-08-27T19:38:14.333Z,100330.38
2022-08-27T19:40:42.190Z,100331.25
2022-08-27T19:43:09.845Z,100337.00
2022-08-27T19:45:39.768Z,100326.72
2022-08-27T19:48:09.148Z,100324.41
2022-08-27T19:50:36.202Z,100327.69
2022-08-27T19:53:03.126Z,100321.78
2022-08-27T19:55:30.089Z,100321.78
2022-08-27T19:57:57.107Z,100317.94
2022-08-27T20:00:27.706Z,100323.22
2022-08-27T20:02:56.207Z,100322.16
2022-08-27T20:05:23.340Z,100328.22
2022-08-27T20:07:52.330Z,100324.47
2022-08-27T20:10:22.502Z,100319.19
2022-08-27T20:12:50.126Z,100331.50
2022-08-27T20:15:19.558Z,100320.16
2022-08-27T20:17:47.064Z,100332.38
2022-08-27T20:20:20.701Z,100329.88
2022-08-27T20:22:47.937Z,100330.22
2022-08-27T20:25:15.003Z,100333.44
2022-08-27T20:27:42.377Z,100329.72
2022-08-27T20:30:12.409Z,100328.06
2022-08-27T20:32:39.564Z,100328.69
2022-08-27T20:35:08.059Z,100335.59
2022-08-27T20:37:40.036Z,100344.94
2022-08-27T20:40:12.831Z,100341.38
2022-08-27T20:42:40.014Z,100341.00
2022-08-27T20:45:11.704Z,100337.03
2022-08-27T20:47:39.694Z,100340.63
2022-08-27T20:50:07.267Z,100336.44
2022-08-27T20:52:35.736Z,100349.38
2022-08-27T20:55:03.521Z,100345.91
2022-08-27T20:57:30.560Z,100341.84
2022-08-27T21:00:16.254Z,100343.13
2022-08-27T21:02:43.177Z,100334.84
2022-08-27T21:05:13.982Z,100338.19
2022-08-27T21:07:42.380Z,100331.06
2022-08-27T21:10:09.680Z,100331.28
2022-08-27T21:12:36.728Z,100335.16
2022-08-27T21:15:06.568Z,100332.47
2022-08-27T21:17:34.090Z,100334.31
2022-08-27T21:20:01.331Z,100333.22
2022-08-27T21:22:28.338Z,100330.00
2022-08-27T21:24:55.502Z,100342.50
2022-08-27T21:27:22.823Z,100342.81
2022-08-27T21:29:50.307Z,100347.22
2022-08-27T21:32:17.471Z,100347.03
2022-08-27T21:34:44.500Z,100335.34
2022-08-27T21:37:13.727Z,100336.69
2022-08-27T21:39:42.457Z,100341.63
2022-08-27T21:42:10.639Z,100339.56
2022-08-27T21:44:38.210Z,100340.22
2022-08-27T21:47:06.124Z,100337.75
2022-08-27T21:49:33.185Z,100331.81
2022-08-27T21:52:03.667Z,100340.84
2022-08-27T21:54:36.974Z,100331.19
2022-08-27T21:57:06.036Z,100330.94
2022-08-27T21:59:39.056Z,100328.47
2022-08-27T22:02:18.348Z,100327.63
2022-08-27T22:04:52.970Z,100327.31
2022-08-27T22:07:20.008Z,100324.38
2022-08-27T22:09:47.062Z,100325.25
2022-08-27T22:12:14.069Z,100333.00
2022-08-27T22:14:41.268Z,100330.66
2022-08-27T22:17:08.828Z,100330.78
2022-08-27T22:19:35.813Z,100331.19
2022-08-27T22:22:02.900Z,100327.50
2022-08-27T22:24:29.874Z,100329.16
2022-08-27T22:26:56.801Z,100325.41
2022-08-27T22:29:24.706Z,100337.53
2022-08-27T22:31:51.886Z,100328.78
2022-08-27T22:34:18.897Z,100326.75
2022-08-27T22:36:45.976Z,100330.72
2022-08-27T22:39:12.958Z,100328.44
2022-08-27T22:41:40.362Z,100320.72
2022-08-27T22:44:11.353Z,100318.00
2022-08-27T22:46:38.311Z,100316.28
2022-08-27T22:49:05.329Z,100315.69
2022-08-27T22:51:32.417Z,100325.91
2022-08-27T22:53:59.461Z,100327.50
2022-08-27T22:56:26.456Z,100321.53
2022-08-27T22:58:53.391Z,100325.34
2022-08-27T23:01:22.083Z,100327.09
2022-08-27T23:03:49.273Z,100319.41
2022-08-27T23:06:16.385Z,100321.03
2022-08-27T23:08:43.863Z,100318.47
2022-08-27T23:11:11.086Z,100322.25
2022-08-27T23:13:38.892Z,100317.19
2022-08-27T23:16:06.250Z,100315.22
2022-08-27T23:18:33.511Z,100318.97
2022-08-27T23:21:00.449Z,100316.28
2022-08-27T23:23:29.921Z,100313.03
2022-08-27T23:26:17.418Z,100320.53
2022-08-27T23:28:44.794Z,100316.38
2022-08-27T23:31:13.115Z,100312.50
2022-08-27T23:33:41.334Z,100308.88
2022-08-27T23:36:09.842Z,100303.69
2022-08-27T23:38:36.777Z,100309.44
2022-08-27T23:41:03.908Z,100307.44
2022-08-27T23:43:30.912Z,100304.47
2022-08-27T23:45:57.839Z,100311.25
2022-08-27T23:48:25.072Z,100306.34
2022-08-27T23:50:52.149Z,100305.88
2022-08-27T23:53:19.125Z,100304.44
2022-08-27T23:55:46.150Z,100306.44
2022-08-27T23:58:13.512Z,100304.00
